createdAt,value
2023-01-26T00:00:55.369Z,50.80
2023-01-26T00:03:22.301Z,52.33
2023-01-26T00:05:48.775Z,51.83
2023-01-26T00:08:15.487Z,46.75
2023-01-26T00:10:50.131Z,46.47
2023-01-26T00:13:18.953Z,52.15
2023-01-26T00:15:45.514Z,51.22
2023-01-26T00:18:12.204Z,52.92
2023-01-26T00:20:38.822Z,46.28
2023-01-26T00:23:08.494Z,52.75
2023-01-26T00:25:37.287Z,43.88
2023-01-26T00:28:03.855Z,53.35
2023-01-26T00:30:30.524Z,48.08
2023-01-26T00:32:57.860Z,46.50
2023-01-26T00:35:24.444Z,41.63
2023-01-26T00:37:50.904Z,53.40
2023-01-26T00:40:17.494Z,56.05
2023-01-26T00:42:44.000Z,49.22
2023-01-26T00:45:10.734Z,49.42
2023-01-26T00:47:38.176Z,48.00
2023-01-26T00:50:04.919Z,48.40
2023-01-26T00:52:31.732Z,51.40
2023-01-26T00:54:59.333Z,55.65
2023-01-26T00:57:25.880Z,48.95
2023-01-26T00:59:52.373Z,50.38
2023-01-26T01:02:18.984Z,45.50
2023-01-26T01:04:45.508Z,41.35
2023-01-26T01:07:12.055Z,44.22
2023-01-26T01:09:38.697Z,45.15
2023-01-26T01:12:05.602Z,44.55
2023-01-26T01:14:32.275Z,38.78
2023-01-26T01:16:59.031Z,36.35
2023-01-26T01:19:25.754Z,33.72
2023-01-26T01:21:52.322Z,36.35
2023-01-26T01:24:18.947Z,36.85
2023-01-26T01:26:45.650Z,37.25
2023-01-26T01:29:15.587Z,33.55
2023-01-26T01:31:43.272Z,38.03
2023-01-26T01:34:09.967Z,39.53
2023-01-26T01:36:36.506Z,32.42
2023-01-26T01:39:03.108Z,32.17
2023-01-26T01:41:29.871Z,31.17
2023-01-26T01:44:13.206Z,21.23
2023-01-26T01:46:40.947Z,33.63
2023-01-26T01:49:14.171Z,37.90
2023-01-26T01:51:42.217Z,29.13
2023-01-26T01:54:16.820Z,40.25
2023-01-26T01:56:45.315Z,37.78
2023-01-26T01:59:12.842Z,26.23
2023-01-26T02:01:39.623Z,31.45
2023-01-26T02:04:07.446Z,36.97
2023-01-26T02:06:53.081Z,39.83
2023-01-26T02:09:41.449Z,35.10
2023-01-26T02:12:11.743Z,40.40
2023-01-26T02:14:39.510Z,36.90
2023-01-26T02:17:06.026Z,42.55
2023-01-26T02:19:36.153Z,38.60
2023-01-26T02:22:07.779Z,32.20
2023-01-26T02:24:37.183Z,38.63
2023-01-26T02:27:03.951Z,30.92
2023-01-26T02:29:30.797Z,33.75
2023-01-26T02:31:57.609Z,23.73
2023-01-26T02:34:28.853Z,37.42
2023-01-26T02:36:56.761Z,39.88
2023-01-26T02:39:42.138Z,27.50
2023-01-26T02:42:27.620Z,38.20
2023-01-26T02:44:54.400Z,44.83
2023-01-26T02:47:21.012Z,37.15
2023-01-26T02:49:49.232Z,40.67
2023-01-26T02:52:18.255Z,36.60
2023-01-26T02:55:06.512Z,34.85
2023-01-26T02:57:35.244Z,39.65
2023-01-26T03:00:02.686Z,40.90
2023-01-26T03:02:31.037Z,32.15
2023-01-26T03:04:57.615Z,43.15
2023-01-26T03:07:24.754Z,45.40
2023-01-26T03:09:51.299Z,47.08
2023-01-26T03:12:17.879Z,37.60
2023-01-26T03:14:44.427Z,46.55
2023-01-26T03:17:11.082Z,49.08
2023-01-26T03:19:56.504Z,30.48
2023-01-26T03:22:41.706Z,43.70
2023-01-26T03:25:27.169Z,40.95
2023-01-26T03:27:53.915Z,46.38
2023-01-26T03:30:22.899Z,42.58
2023-01-26T03:32:50.088Z,45.08
2023-01-26T03:35:22.530Z,32.35
2023-01-26T03:37:55.043Z,33.88
2023-01-26T03:40:56.980Z,36.70
2023-01-26T03:43:42.494Z,42.03
2023-01-26T03:46:28.025Z,42.55
2023-01-26T03:49:13.627Z,36.40
2023-01-26T03:51:59.111Z,48.40
2023-01-26T03:54:44.503Z,46.83
2023-01-26T03:57:11.263Z,45.00
2023-01-26T03:59:38.326Z,47.15
2023-01-26T04:02:28.944Z,50.17
2023-01-26T04:05:14.667Z,51.60
2023-01-26T04:08:04.029Z,50.63
2023-01-26T04:10:30.718Z,52.60
2023-01-26T04:13:17.710Z,52.90
2023-01-26T04:16:08.378Z,45.95
2023-01-26T04:18:54.885Z,49.10
2023-01-26T04:21:33.267Z,49.53
2023-01-26T04:24:09.572Z,48.22
2023-01-26T04:26:36.838Z,52.75
2023-01-26T04:29:08.287Z,49.70
2023-01-26T04:31:35.220Z,53.10
2023-01-26T04:34:02.730Z,55.97
2023-01-26T04:36:29.634Z,51.35
2023-01-26T04:38:56.255Z,54.50
2023-01-26T04:41:23.341Z,58.53
2023-01-26T04:43:59.335Z,59.63
2023-01-26T04:46:26.136Z,57.13
2023-01-26T04:48:52.669Z,57.55
2023-01-26T04:51:20.901Z,59.92
2023-01-26T04:53:48.103Z,58.67
2023-01-26T04:56:47.181Z,57.00
2023-01-26T04:59:14.511Z,59.30
2023-01-26T05:01:41.965Z,60.13
2023-01-26T05:04:09.880Z,58.30
2023-01-26T05:06:39.502Z,61.00
2023-01-26T05:09:06.057Z,57.03
2023-01-26T05:11:34.259Z,58.97
2023-01-26T05:14:09.324Z,56.67
2023-01-26T05:16:44.996Z,61.78
2023-01-26T05:19:30.705Z,60.50
2023-01-26T05:22:26.446Z,57.35
2023-01-26T05:25:22.076Z,58.50
2023-01-26T05:28:00.942Z,56.70
2023-01-26T05:30:27.822Z,59.13
2023-01-26T05:33:00.303Z,65.30
2023-01-26T05:35:26.904Z,65.60
2023-01-26T05:37:53.776Z,61.22
2023-01-26T05:40:21.794Z,65.07
2023-01-26T05:42:48.684Z,61.05
2023-01-26T05:45:22.763Z,59.65
2023-01-26T05:47:51.798Z,67.05
2023-01-26T05:50:18.689Z,71.55
2023-01-26T05:53:05.491Z,61.30
2023-01-26T05:55:34.259Z,60.90
2023-01-26T05:58:01.169Z,66.55
2023-01-26T06:00:27.806Z,64.85
2023-01-26T06:03:02.216Z,68.65
2023-01-26T06:05:28.931Z,69.60
2023-01-26T06:07:55.846Z,68.65
2023-01-26T06:10:29.652Z,70.80
2023-01-26T06:13:34.492Z,64.45
2023-01-26T06:16:19.437Z,66.28
2023-01-26T06:18:49.901Z,77.25
2023-01-26T06:21:17.725Z,63.47
2023-01-26T06:23:44.299Z,66.95
2023-01-26T06:26:11.703Z,65.82
2023-01-26T06:28:38.595Z,61.60
2023-01-26T06:31:06.517Z,64.05
2023-01-26T06:33:35.066Z,65.97
2023-01-26T06:36:06.238Z,63.55
2023-01-26T06:38:33.101Z,61.65
2023-01-26T06:41:03.787Z,61.55
2023-01-26T06:43:32.189Z,58.15
2023-01-26T06:45:59.932Z,63.28
2023-01-26T06:48:27.798Z,58.90
2023-01-26T06:51:03.624Z,59.28
2023-01-26T06:53:33.777Z,57.92
2023-01-26T06:56:35.718Z,60.67
2023-01-26T06:59:19.401Z,53.97
2023-01-26T07:02:06.234Z,59.92
2023-01-26T07:04:32.921Z,58.08
2023-01-26T07:06:59.521Z,63.33
2023-01-26T07:09:26.067Z,65.80
2023-01-26T07:11:52.592Z,59.83
2023-01-26T07:14:19.256Z,65.63
2023-01-26T07:16:45.964Z,65.97
2023-01-26T07:19:12.496Z,64.30
2023-01-26T07:21:39.402Z,59.30
2023-01-26T07:24:06.124Z,62.22
2023-01-26T07:26:32.649Z,62.40
2023-01-26T07:28:59.165Z,58.45
2023-01-26T07:31:25.708Z,56.08
2023-01-26T07:33:52.317Z,56.15
2023-01-26T07:36:18.876Z,55.38
2023-01-26T07:38:45.656Z,58.55
2023-01-26T07:41:12.820Z,62.08
2023-01-26T07:43:39.629Z,62.25
2023-01-26T07:46:10.689Z,63.30
2023-01-26T07:48:37.374Z,63.00
2023-01-26T07:51:04.574Z,67.03
2023-01-26T07:53:34.080Z,67.05
2023-01-26T07:56:11.537Z,61.40
2023-01-26T07:58:38.674Z,63.65
2023-01-26T08:01:06.316Z,65.93
2023-01-26T08:03:32.896Z,60.10
2023-01-26T08:05:59.652Z,60.60
2023-01-26T08:08:27.192Z,67.78
2023-01-26T08:10:58.087Z,62.35
2023-01-26T08:13:34.717Z,62.60
2023-01-26T08:16:02.932Z,65.05
2023-01-26T08:18:30.165Z,64.50
2023-01-26T08:20:56.768Z,63.85
2023-01-26T08:23:23.389Z,68.45
2023-01-26T08:25:49.969Z,72.22
2023-01-26T08:28:16.680Z,66.40
2023-01-26T08:30:43.509Z,71.07
2023-01-26T08:33:10.133Z,63.63
2023-01-26T08:35:36.686Z,68.13
2023-01-26T08:38:03.246Z,65.25
2023-01-26T08:40:29.867Z,64.57
2023-01-26T08:42:59.470Z,55.65
2023-01-26T08:45:26.172Z,53.78
2023-01-26T08:47:52.761Z,59.25
2023-01-26T08:50:19.408Z,52.67
2023-01-26T08:52:46.461Z,50.33
2023-01-26T08:55:13.307Z,48.15
2023-01-26T08:57:40.016Z,46.40
2023-01-26T09:00:07.311Z,45.47
2023-01-26T09:02:33.989Z,50.03
2023-01-26T09:05:00.727Z,51.60
2023-01-26T09:07:27.205Z,49.17
2023-01-26T09:09:53.904Z,53.95
2023-01-26T09:12:20.364Z,53.10
2023-01-26T09:14:46.992Z,51.70
2023-01-26T09:17:13.534Z,47.35
2023-01-26T09:19:40.111Z,54.20
2023-01-26T09:22:06.816Z,54.05
2023-01-26T09:24:33.454Z,53.15
2023-01-26T09:27:00.048Z,50.50
2023-01-26T09:29:26.581Z,54.63
2023-01-26T09:31:53.108Z,52.40
2023-01-26T09:34:19.789Z,49.25
2023-01-26T09:36:46.369Z,53.58
2023-01-26T09:39:12.895Z,49.58
2023-01-26T09:41:42.560Z,51.17
2023-01-26T09:44:10.919Z,51.00
2023-01-26T09:46:44.476Z,54.08
2023-01-26T09:49:19.201Z,58.75
2023-01-26T09:51:57.631Z,61.67
2023-01-26T09:54:26.601Z,59.40
2023-01-26T09:56:54.614Z,61.10
2023-01-26T09:59:21.112Z,57.95
2023-01-26T10:01:57.536Z,60.20
2023-01-26T10:04:36.657Z,58.88
2023-01-26T10:07:05.619Z,63.47
2023-01-26T10:09:51.984Z,54.92
2023-01-26T10:12:21.659Z,63.50
2023-01-26T10:14:53.134Z,57.33
2023-01-26T10:17:27.482Z,56.95
2023-01-26T10:20:01.090Z,59.72
2023-01-26T10:22:34.222Z,59.50
2023-01-26T10:25:01.030Z,57.33
2023-01-26T10:27:28.688Z,40.80
2023-01-26T10:29:55.671Z,57.85
2023-01-26T10:32:22.380Z,52.70
2023-01-26T10:34:49.895Z,50.03
2023-01-26T10:37:23.699Z,48.45
2023-01-26T10:40:00.578Z,50.13
2023-01-26T10:42:34.573Z,44.65
2023-01-26T10:45:02.286Z,45.45
2023-01-26T10:47:29.289Z,50.15
2023-01-26T10:50:14.908Z,44.05
2023-01-26T10:52:56.480Z,44.90
2023-01-26T10:55:23.321Z,48.75
2023-01-26T10:57:50.470Z,46.90
2023-01-26T11:00:25.254Z,45.88
2023-01-26T11:02:53.326Z,44.50
2023-01-26T11:05:24.039Z,46.35
2023-01-26T11:07:58.785Z,44.40
2023-01-26T11:10:33.581Z,45.03
2023-01-26T11:13:20.432Z,43.45
2023-01-26T11:15:48.158Z,35.60
2023-01-26T11:18:26.973Z,34.50
2023-01-26T11:20:57.963Z,42.67
2023-01-26T11:23:32.794Z,42.28
2023-01-26T11:26:09.544Z,38.90
2023-01-26T11:28:48.969Z,37.42
2023-01-26T11:31:15.551Z,40.63
2023-01-26T11:33:53.643Z,41.03
2023-01-26T11:36:37.047Z,37.95
2023-01-26T11:39:22.802Z,34.90
2023-01-26T11:41:52.512Z,32.00
2023-01-26T11:44:25.282Z,34.35
2023-01-26T11:46:52.783Z,32.88
2023-01-26T11:49:22.370Z,36.40
2023-01-26T11:51:54.623Z,34.78
2023-01-26T11:54:27.831Z,35.72
2023-01-26T11:57:04.762Z,32.50
2023-01-26T11:59:38.655Z,33.00
2023-01-26T12:02:16.231Z,33.33
2023-01-26T12:04:45.566Z,29.42
2023-01-26T12:07:22.748Z,31.20
2023-01-26T12:09:50.295Z,28.63
2023-01-26T12:12:24.649Z,26.60
2023-01-26T12:14:55.301Z,32.45
2023-01-26T12:17:40.835Z,26.33
2023-01-26T12:20:24.247Z,31.90
2023-01-26T12:22:54.909Z,32.35
2023-01-26T12:25:35.560Z,27.52
2023-01-26T12:28:06.432Z,25.83
2023-01-26T12:30:33.157Z,27.23
2023-01-26T12:33:00.089Z,29.80
2023-01-26T12:35:32.854Z,27.63
2023-01-26T12:38:17.334Z,27.27
2023-01-26T12:40:52.934Z,27.20
2023-01-26T12:43:32.756Z,28.60
2023-01-26T12:46:00.922Z,30.25
2023-01-26T12:48:36.296Z,32.00
2023-01-26T12:51:07.309Z,33.65
2023-01-26T12:53:37.926Z,36.70
2023-01-26T12:56:10.943Z,39.30
2023-01-26T12:58:45.847Z,43.22
2023-01-26T13:01:14.732Z,28.10
2023-01-26T13:03:43.246Z,30.23
2023-01-26T13:06:09.826Z,41.60
2023-01-26T13:08:36.398Z,31.58
2023-01-26T13:11:04.783Z,38.38
2023-01-26T13:13:32.903Z,35.65
2023-01-26T13:16:17.983Z,28.48
2023-01-26T13:18:48.638Z,30.70
2023-01-26T13:21:34.035Z,33.85
2023-01-26T13:24:00.636Z,24.10
2023-01-26T13:26:33.452Z,24.33
2023-01-26T13:29:18.778Z,24.77
2023-01-26T13:31:45.375Z,33.50
2023-01-26T13:34:15.028Z,28.17
2023-01-26T13:36:43.611Z,32.70
2023-01-26T13:39:13.166Z,27.52
2023-01-26T13:41:47.653Z,29.33
2023-01-26T13:44:20.228Z,47.63
2023-01-26T13:46:51.430Z,37.95
2023-01-26T13:49:25.407Z,37.00
2023-01-26T13:51:52.147Z,31.02
2023-01-26T13:54:19.431Z,30.73
2023-01-26T13:57:02.703Z,31.73
2023-01-26T13:59:29.677Z,35.28
2023-01-26T14:01:57.792Z,40.35
2023-01-26T14:04:25.857Z,45.40
2023-01-26T14:06:52.549Z,44.88
2023-01-26T14:09:19.335Z,49.53
2023-01-26T14:11:53.700Z,47.85
2023-01-26T14:14:24.049Z,54.70
2023-01-26T14:16:50.646Z,52.10
2023-01-26T14:19:18.981Z,46.92
2023-01-26T14:21:51.796Z,46.55
2023-01-26T14:24:21.119Z,43.00
2023-01-26T14:26:48.558Z,40.80
2023-01-26T14:29:20.234Z,37.78
2023-01-26T14:31:47.603Z,45.78
2023-01-26T14:34:18.364Z,45.75
2023-01-26T14:36:45.008Z,38.20
2023-01-26T14:39:19.360Z,45.40
2023-01-26T14:41:46.434Z,52.30
2023-01-26T14:44:13.351Z,56.95
2023-01-26T14:46:58.565Z,52.22
2023-01-26T14:49:28.515Z,48.63
2023-01-26T14:51:56.916Z,54.08
2023-01-26T14:54:23.571Z,51.95
2023-01-26T14:56:50.282Z,57.30
2023-01-26T14:59:33.338Z,56.10
2023-01-26T15:02:04.689Z,55.05
2023-01-26T15:04:36.268Z,55.42
2023-01-26T15:07:22.198Z,57.90
2023-01-26T15:09:53.126Z,56.25
2023-01-26T15:12:21.682Z,58.03
2023-01-26T15:14:49.922Z,64.53
2023-01-26T15:17:35.616Z,86.83
2023-01-26T15:20:02.477Z,65.30
2023-01-26T15:22:29.270Z,65.93
2023-01-26T15:25:18.180Z,73.68
2023-01-26T15:27:49.928Z,59.77
2023-01-26T15:30:19.877Z,80.63
2023-01-26T15:32:46.901Z,54.17
2023-01-26T15:35:30.103Z,47.50
2023-01-26T15:38:01.065Z,49.80
2023-01-26T15:40:27.932Z,51.30
2023-01-26T15:43:13.737Z,49.73
2023-01-26T15:45:43.558Z,49.90
2023-01-26T15:48:10.289Z,44.08
2023-01-26T15:50:36.959Z,52.67
2023-01-26T15:53:03.641Z,43.40
2023-01-26T15:55:31.619Z,46.70
2023-01-26T15:57:58.328Z,44.27
2023-01-26T16:00:24.987Z,35.83
2023-01-26T16:02:51.535Z,43.28
2023-01-26T16:05:19.857Z,33.53
2023-01-26T16:07:46.934Z,40.00
2023-01-26T16:10:14.278Z,40.57
2023-01-26T16:12:40.990Z,38.87
2023-01-26T16:15:34.414Z,39.07
2023-01-26T16:18:01.125Z,41.08
2023-01-26T16:20:27.592Z,41.33
2023-01-26T16:22:54.548Z,44.23
2023-01-26T16:25:28.684Z,41.13
2023-01-26T16:27:55.695Z,43.13
2023-01-26T16:30:22.604Z,42.77
2023-01-26T16:32:50.044Z,46.43
2023-01-26T16:35:18.165Z,44.50
2023-01-26T16:37:45.075Z,47.60
2023-01-26T16:40:14.129Z,39.63
2023-01-26T16:42:42.100Z,40.17
2023-01-26T16:45:15.456Z,82.00
2023-01-26T16:47:42.240Z,108.23
2023-01-26T16:50:09.397Z,99.80
2023-01-26T16:52:36.332Z,66.23
2023-01-26T16:55:03.022Z,67.77
2023-01-26T16:57:29.874Z,64.00
2023-01-26T16:59:56.607Z,63.57
2023-01-26T17:02:24.908Z,63.53
2023-01-26T17:04:51.691Z,66.60
2023-01-26T17:07:18.536Z,70.93
2023-01-26T17:09:45.231Z,73.73
2023-01-26T17:12:12.040Z,85.23
2023-01-26T17:14:38.897Z,80.93
2023-01-26T17:17:05.784Z,94.80
2023-01-26T17:19:32.362Z,89.27
2023-01-26T17:21:58.999Z,90.47
2023-01-26T17:24:25.731Z,78.47
2023-01-26T17:26:53.650Z,89.03
2023-01-26T17:29:20.270Z,88.73
2023-01-26T17:31:46.939Z,100.60
2023-01-26T17:34:13.580Z,78.70
2023-01-26T17:36:40.156Z,79.50
2023-01-26T17:39:06.763Z,93.93
2023-01-26T17:41:33.451Z,90.07
2023-01-26T17:44:00.208Z,94.63
2023-01-26T17:46:26.819Z,101.30
2023-01-26T17:48:54.463Z,111.33
2023-01-26T17:51:21.549Z,120.13
2023-01-26T17:53:51.975Z,83.50
2023-01-26T17:56:19.859Z,83.57
2023-01-26T17:58:51.758Z,86.13
2023-01-26T18:01:19.158Z,85.00
2023-01-26T18:03:45.946Z,76.57
2023-01-26T18:06:12.655Z,93.67
2023-01-26T18:08:39.641Z,95.37
2023-01-26T18:11:07.790Z,97.00
2023-01-26T18:13:34.568Z,86.13
2023-01-26T18:16:01.189Z,97.77
2023-01-26T18:18:28.660Z,84.37
2023-01-26T18:20:55.454Z,89.57
2023-01-26T18:23:22.949Z,85.27
2023-01-26T18:25:50.098Z,80.23
2023-01-26T18:28:16.849Z,85.43
2023-01-26T18:30:43.616Z,100.00
2023-01-26T18:33:10.399Z,89.87
2023-01-26T18:35:37.254Z,87.10
2023-01-26T18:38:04.896Z,69.50
2023-01-26T18:40:31.509Z,83.93
2023-01-26T18:43:02.122Z,69.80
2023-01-26T18:45:28.919Z,80.47
2023-01-26T18:47:55.571Z,80.10
2023-01-26T18:50:22.896Z,83.53
2023-01-26T18:52:49.527Z,78.80
2023-01-26T18:55:16.644Z,91.17
2023-01-26T18:57:43.554Z,79.63
2023-01-26T19:00:10.789Z,83.20
2023-01-26T19:02:38.806Z,91.40
2023-01-26T19:05:06.644Z,107.80
2023-01-26T19:07:33.661Z,93.07
2023-01-26T19:10:00.661Z,82.47
2023-01-26T19:12:27.383Z,89.30
2023-01-26T19:14:54.108Z,105.30
2023-01-26T19:17:20.732Z,113.00
2023-01-26T19:19:48.046Z,129.77
2023-01-26T19:22:14.762Z,156.30
2023-01-26T19:24:43.032Z,321.00
2023-01-26T19:27:09.846Z,214.43
2023-01-26T19:29:36.709Z,251.03
2023-01-26T19:32:03.529Z,168.03
2023-01-26T19:34:31.993Z,218.33
2023-01-26T19:36:58.913Z,187.03
2023-01-26T19:39:25.594Z,168.90
2023-01-26T19:41:52.420Z,142.60
2023-01-26T19:44:19.057Z,115.97
2023-01-26T19:46:45.706Z,122.00
2023-01-26T19:49:13.678Z,93.63
2023-01-26T19:51:40.379Z,125.07
2023-01-26T19:54:07.054Z,112.83
2023-01-26T19:56:36.126Z,92.93
2023-01-26T19:59:04.984Z,93.33
2023-01-26T20:01:32.358Z,103.90
2023-01-26T20:04:00.372Z,94.73
2023-01-26T20:06:28.204Z,92.77
2023-01-26T20:08:55.158Z,63.00
2023-01-26T20:11:25.277Z,74.67
2023-01-26T20:13:55.198Z,74.87
2023-01-26T20:16:22.303Z,54.57
2023-01-26T20:18:49.041Z,59.63
2023-01-26T20:21:15.552Z,49.80
2023-01-26T20:23:53.687Z,67.93
2023-01-26T20:26:21.026Z,66.70
2023-01-26T20:28:47.714Z,57.63
2023-01-26T20:31:16.721Z,55.20
2023-01-26T20:33:44.764Z,52.07
2023-01-26T20:36:12.837Z,46.80
2023-01-26T20:38:39.618Z,45.10
2023-01-26T20:41:09.595Z,44.00
2023-01-26T20:43:39.228Z,34.03
2023-01-26T20:46:11.086Z,28.87
2023-01-26T20:48:37.704Z,32.67
2023-01-26T20:51:11.828Z,30.80
2023-01-26T20:53:38.631Z,31.40
2023-01-26T20:56:08.964Z,38.07
2023-01-26T20:58:36.220Z,37.27
2023-01-26T21:01:06.437Z,38.77
2023-01-26T21:03:35.667Z,35.77
2023-01-26T21:06:02.689Z,35.67
2023-01-26T21:08:29.289Z,34.03
2023-01-26T21:10:56.062Z,29.80
2023-01-26T21:13:22.799Z,29.80
2023-01-26T21:15:49.987Z,25.40
2023-01-26T21:18:16.695Z,24.33
2023-01-26T21:20:43.271Z,21.57
2023-01-26T21:23:09.889Z,26.30
2023-01-26T21:25:36.530Z,18.50
2023-01-26T21:28:03.090Z,18.83
2023-01-26T21:30:29.774Z,17.10
2023-01-26T21:32:56.237Z,15.70
2023-01-26T21:35:22.823Z,13.47
2023-01-26T21:37:49.399Z,13.97
2023-01-26T21:40:16.029Z,10.63
2023-01-26T21:42:42.605Z,13.87
2023-01-26T21:45:27.912Z,12.47
2023-01-26T21:48:12.963Z,10.57
2023-01-26T21:50:58.299Z,11.33
2023-01-26T21:53:24.887Z,10.50
2023-01-26T21:55:51.477Z,12.10
2023-01-26T21:58:36.786Z,9.40
2023-01-26T22:01:10.235Z,11.50
2023-01-26T22:03:36.821Z,10.30
2023-01-26T22:06:04.455Z,10.97
2023-01-26T22:08:30.992Z,9.97
2023-01-26T22:10:57.543Z,10.17
2023-01-26T22:13:24.599Z,11.10
2023-01-26T22:15:51.132Z,7.73
2023-01-26T22:18:18.013Z,9.77
2023-01-26T22:20:44.929Z,9.97
2023-01-26T22:23:11.474Z,7.30
2023-01-26T22:25:38.852Z,8.63
2023-01-26T22:28:05.728Z,7.07
2023-01-26T22:30:32.435Z,7.23
2023-01-26T22:32:59.041Z,5.43
2023-01-26T22:35:27.628Z,7.43
2023-01-26T22:37:56.285Z,6.17
2023-01-26T22:40:23.204Z,7.50
2023-01-26T22:42:50.936Z,8.03
2023-01-26T22:45:18.519Z,7.07
2023-01-26T22:47:45.134Z,6.07
2023-01-26T22:50:12.182Z,7.33
2023-01-26T22:52:38.844Z,6.70
2023-01-26T22:55:05.605Z,7.00
2023-01-26T22:57:32.097Z,5.63
2023-01-26T22:59:58.590Z,7.67
2023-01-26T23:02:25.365Z,7.43
2023-01-26T23:04:51.905Z,5.67
2023-01-26T23:07:18.453Z,6.20
2023-01-26T23:09:45.070Z,6.67
2023-01-26T23:12:11.509Z,6.93
2023-01-26T23:14:38.071Z,7.10
2023-01-26T23:17:05.518Z,6.00
2023-01-26T23:19:33.561Z,6.50
2023-01-26T23:22:00.147Z,5.90
2023-01-26T23:24:26.699Z,5.87
2023-01-26T23:26:53.297Z,7.93
2023-01-26T23:29:19.827Z,6.63
2023-01-26T23:31:46.503Z,6.67
2023-01-26T23:34:12.987Z,5.20
2023-01-26T23:36:39.489Z,6.17
2023-01-26T23:39:06.002Z,6.50
2023-01-26T23:41:32.618Z,5.90
2023-01-26T23:43:59.137Z,6.20
2023-01-26T23:46:25.705Z,6.20
2023-01-26T23:48:52.258Z,5.07
2023-01-26T23:51:18.782Z,5.67
2023-01-26T23:53:45.993Z,5.10
2023-01-26T23:56:14.320Z,5.80
2023-01-26T23:58:41.248Z,7.63
